createdAt,value
2019-02-27T00:01:35.628Z,11.58
2019-02-27T00:07:30.652Z,11.66
2019-02-27T00:13:25.663Z,11.91
2019-02-27T00:19:20.700Z,11.13
2019-02-27T00:25:15.645Z,9.88
2019-02-27T00:31:11.407Z,10.54
2019-02-27T00:37:05.688Z,11.02
2019-02-27T00:43:00.671Z,10.23
2019-02-27T00:48:58.986Z,9.46
2019-02-27T00:54:50.653Z,8.99
2019-02-27T01:00:46.033Z,7.48
2019-02-27T01:06:40.694Z,8.36
2019-02-27T01:12:35.679Z,7.48
2019-02-27T01:18:31.393Z,7.33
2019-02-27T01:24:25.709Z,7.38
2019-02-27T01:30:23.809Z,7.45
2019-02-27T01:36:15.693Z,6.47
2019-02-27T01:42:10.725Z,6.38
2019-02-27T01:48:08.866Z,7.02
2019-02-27T01:54:00.768Z,6.2
2019-02-27T01:59:55.754Z,6.78
2019-02-27T02:05:50.734Z,6.58
2019-02-27T02:11:45.707Z,6.64
2019-02-27T02:17:40.990Z,7.03
2019-02-27T02:23:35.734Z,7.32
2019-02-27T02:29:30.733Z,7.33
2019-02-27T02:35:25.753Z,6.93
2019-02-27T02:41:20.781Z,7.4
2019-02-27T02:47:19.486Z,7.42
2019-02-27T02:53:10.743Z,7.82
2019-02-27T02:59:05.739Z,7.58
2019-02-27T03:05:00.806Z,6.64
2019-02-27T03:10:55.761Z,6.65
2019-02-27T03:16:50.742Z,6.56
2019-02-27T03:22:46.046Z,6.61
2019-02-27T03:28:41.626Z,7.35
2019-02-27T03:34:35.803Z,6.27
2019-02-27T03:40:30.806Z,6.84
2019-02-27T03:46:25.856Z,7.33
2019-02-27T03:52:20.838Z,6.72
2019-02-27T03:58:15.771Z,7.05
2019-02-27T04:04:10.796Z,7.49
2019-02-27T04:10:05.808Z,8.66
2019-02-27T04:16:00.793Z,8.46
2019-02-27T04:22:00.443Z,7.52
2019-02-27T04:27:55.157Z,6.57
2019-02-27T04:33:46.135Z,7.86
2019-02-27T04:39:40.836Z,7.79
2019-02-27T04:45:35.792Z,7.19
2019-02-27T04:51:30.825Z,7.32
2019-02-27T04:57:25.826Z,8.09
2019-02-27T05:03:20.810Z,7.61
2019-02-27T05:09:15.838Z,6.98
2019-02-27T05:15:10.828Z,7.19
2019-02-27T05:21:05.828Z,7.21
2019-02-27T05:27:01.329Z,7.39
2019-02-27T05:32:55.835Z,7.9
2019-02-27T05:38:50.854Z,8.18
2019-02-27T05:44:46.166Z,10.71
2019-02-27T05:50:40.858Z,8.58
2019-02-27T06:08:25.866Z,9.08
2019-02-27T06:08:25.910Z,8.74
2019-02-27T06:08:25.920Z,8.74
2019-02-27T06:14:21.352Z,8.78
2019-02-27T06:20:15.856Z,8.4
2019-02-27T06:26:10.861Z,8.62
2019-02-27T06:32:05.888Z,7.73
2019-02-27T06:38:00.865Z,7.78
2019-02-27T06:43:55.878Z,7.99
2019-02-27T06:49:51.853Z,7.87
2019-02-27T06:55:46.219Z,7.23
2019-02-27T07:01:40.888Z,7.6
2019-02-27T07:07:35.900Z,8.33
2019-02-27T07:13:30.896Z,9.62
2019-02-27T07:19:25.911Z,8.75
2019-02-27T07:25:20.999Z,19.54
2019-02-27T07:31:18.232Z,13.16
2019-02-27T07:37:12.876Z,16.33
2019-02-27T07:43:06.391Z,9.61
2019-02-27T07:49:01.580Z,9.86
2019-02-27T07:54:55.989Z,9.4
2019-02-27T08:00:50.938Z,10.5
2019-02-27T08:06:46.246Z,7.79
2019-02-27T08:12:40.959Z,9.84
2019-02-27T08:18:37.502Z,9.98
2019-02-27T08:24:30.965Z,9.56
2019-02-27T08:30:25.973Z,9.76
2019-02-27T08:36:20.939Z,9.06
2019-02-27T08:42:15.990Z,10.18
2019-02-27T08:48:10.946Z,9.29
2019-02-27T09:00:00.940Z,10.61
2019-02-27T09:00:01.041Z,10.14
2019-02-27T09:05:55.962Z,10.27
2019-02-27T09:11:51.038Z,11.37
2019-02-27T09:17:46.256Z,9.94
2019-02-27T09:23:40.978Z,10.29
2019-02-27T09:29:35.986Z,9.29
2019-02-27T09:35:33.318Z,9.06
2019-02-27T09:41:26.020Z,9.25
2019-02-27T09:47:23.120Z,10.22
2019-02-27T09:53:16.034Z,11.61
2019-02-27T09:59:11.034Z,9.99
2019-02-27T10:05:06.007Z,9.4
2019-02-27T10:11:01.003Z,10.26
2019-02-27T10:16:56.011Z,12.42
2019-02-27T10:22:53.167Z,10.03
2019-02-27T10:28:46.348Z,10.85
2019-02-27T10:34:41.025Z,10.33
2019-02-27T10:40:36.007Z,11.15
2019-02-27T10:46:31.046Z,11.76
2019-02-27T10:52:26.025Z,12.07
2019-02-27T10:58:21.016Z,11.73
2019-02-27T11:04:16.035Z,11.74
2019-02-27T11:10:11.070Z,10.74
2019-02-27T11:16:06.055Z,15.96
2019-02-27T11:22:01.028Z,11.32
2019-02-27T11:27:56.068Z,12.79
2019-02-27T11:33:51.030Z,16.86
2019-02-27T11:39:46.088Z,13.72
2019-02-27T11:45:41.064Z,10.93
2019-02-27T11:51:36.067Z,9.98
2019-02-27T11:57:31.261Z,9.51
2019-02-27T12:03:26.101Z,8.69
2019-02-27T12:09:21.094Z,6.63
2019-02-27T12:15:16.104Z,7.25
2019-02-27T12:21:11.154Z,6.25
2019-02-27T12:27:07.259Z,7.63
2019-02-27T12:33:01.099Z,7.12
2019-02-27T12:38:56.102Z,6.11
2019-02-27T12:44:53.669Z,6.03
2019-02-27T12:50:46.082Z,6.77
2019-02-27T12:56:42.355Z,7.16
2019-02-27T13:02:36.137Z,7.78
2019-02-27T13:08:31.107Z,9.31
2019-02-27T13:14:26.120Z,8.8
2019-02-27T13:20:21.169Z,7.61
2019-02-27T13:26:16.159Z,9.74
2019-02-27T13:32:11.140Z,8.49
2019-02-27T13:38:06.126Z,8.53
2019-02-27T13:44:01.329Z,8.5
2019-02-27T13:49:56.119Z,8.86
2019-02-27T13:55:51.453Z,7.37
2019-02-27T14:01:46.139Z,7.28
2019-02-27T14:07:41.131Z,5.58
2019-02-27T14:13:36.151Z,5.49
2019-02-27T14:19:31.146Z,5.94
2019-02-27T14:25:29.836Z,4.78
2019-02-27T14:31:21.205Z,6.26
2019-02-27T14:37:16.569Z,6.78
2019-02-27T14:43:11.157Z,8.52
2019-02-27T14:49:06.204Z,5.84
2019-02-27T14:55:03.338Z,6.18
2019-02-27T15:00:56.194Z,6.49
2019-02-27T15:06:51.483Z,5.48
2019-02-27T15:12:46.163Z,6.16
2019-02-27T15:18:41.179Z,4.64
2019-02-27T15:24:36.222Z,4.27
2019-02-27T15:30:31.195Z,3.77
2019-02-27T15:36:29.208Z,4.55
2019-02-27T15:42:21.222Z,4.52
2019-02-27T15:48:16.209Z,4.29
2019-02-27T15:54:11.210Z,3.39
2019-02-27T16:00:06.287Z,3.29
2019-02-27T16:11:56.225Z,3.11
2019-02-27T16:11:56.282Z,5.01
2019-02-27T16:17:51.601Z,5.23
2019-02-27T16:23:46.221Z,3.12
2019-02-27T16:29:41.278Z,3.97
2019-02-27T16:35:41.367Z,5.42
2019-02-27T16:41:31.251Z,3.95
2019-02-27T16:47:26.240Z,4.43
2019-02-27T16:53:21.223Z,5.16
2019-02-27T16:59:16.244Z,3.26
2019-02-27T17:05:11.265Z,3.81
2019-02-27T17:11:06.271Z,2.92
2019-02-27T17:17:01.263Z,3.67
2019-02-27T17:22:56.254Z,3.24
2019-02-27T17:28:51.690Z,3.18
2019-02-27T17:34:47.628Z,3.38
2019-02-27T17:40:41.269Z,3.21
2019-02-27T17:46:36.247Z,3.4
2019-02-27T17:52:31.309Z,3.42
2019-02-27T18:10:16.295Z,4.66
2019-02-27T18:10:16.333Z,3.85
2019-02-27T18:10:16.358Z,3.85
2019-02-27T18:16:11.272Z,3.49
2019-02-27T18:22:06.300Z,5
2019-02-27T18:28:01.328Z,5.13
2019-02-27T18:33:56.346Z,4.64
2019-02-27T18:39:51.595Z,4.69
2019-02-27T18:45:48.120Z,5.12
2019-02-27T18:51:41.341Z,4.47
2019-02-27T20:32:16.477Z,4.72
2019-02-27T20:32:16.517Z,5.72
2019-02-27T20:32:16.543Z,7.48
2019-02-27T20:32:16.561Z,7.48
2019-02-27T20:32:16.598Z,7.48
2019-02-27T20:32:16.605Z,7.48
2019-02-27T20:32:16.630Z,7.48
2019-02-27T20:32:16.634Z,7.48
2019-02-27T20:32:16.677Z,7.48
2019-02-27T20:32:16.686Z,7.48
2019-02-27T20:32:16.720Z,7.48
2019-02-27T20:32:16.735Z,7.48
2019-02-27T20:32:16.793Z,7.48
2019-02-27T20:32:16.793Z,7.48
2019-02-27T20:32:16.829Z,7.48
2019-02-27T20:32:16.855Z,7.48
2019-02-27T20:32:16.864Z,7.48
2019-02-27T20:38:15.277Z,7.95
2019-02-27T20:44:06.484Z,8.96
2019-02-27T20:50:01.393Z,10.88
2019-02-27T20:55:56.399Z,11.69
2019-02-27T21:01:51.706Z,11.2
2019-02-27T21:07:46.421Z,10.98
2019-02-27T21:13:41.432Z,11.02
2019-02-27T21:19:37.075Z,12
2019-02-27T21:25:31.407Z,12.43
2019-02-27T21:31:26.851Z,11.46
2019-02-27T21:37:21.408Z,11.88
2019-02-27T21:43:16.447Z,11.32
2019-02-27T21:49:11.440Z,13.86
2019-02-27T21:55:06.454Z,10.89
2019-02-27T22:01:01.452Z,10.5
2019-02-27T22:06:58.394Z,13.06
2019-02-27T22:12:51.451Z,12.04
2019-02-27T22:18:46.965Z,14.14
2019-02-27T22:24:41.487Z,15.3
2019-02-27T22:30:36.462Z,14.4
2019-02-27T22:36:31.517Z,13.91
2019-02-27T22:42:26.478Z,13.22
2019-02-27T22:48:21.505Z,13.67
2019-02-27T22:54:16.511Z,14.74
2019-02-27T23:00:12.079Z,14.76
2019-02-27T23:06:09.185Z,14.2
2019-02-27T23:12:01.483Z,13.72
2019-02-27T23:17:56.508Z,13.76
2019-02-27T23:23:51.784Z,14.36
2019-02-27T23:29:46.533Z,16.27
2019-02-27T23:35:41.525Z,15.13
2019-02-27T23:41:36.496Z,14.37
2019-02-27T23:47:31.543Z,13.24
2019-02-27T23:53:27.081Z,13.55
2019-02-27T23:59:21.512Z,14.57
